Time;durP1;ratioP1;P1;durP2;ratioP2;P2;SDS_P1;SDS_P2;PMS_P1;PMS_P2;Temp;Humidity;BMP_temperature;BMP_pressure;BME280_temperature;BME280_humidity;BME280_pressure;Samples;Min_cycle;Max_cycle;Signal;HPM_P1;HPM_P2
2022/02/25 00:01:10;;;;;;;;;;;;;;;9.17;54.02;99475.05;1733175;80;20198;-78
2022/02/25 00:03:36;;;;;;;;;;;;;;;9.23;53.96;99464.33;1739433;81;20189;-79
2022/02/25 00:06:05;;;;;;;;;;;;;;;9.20;54.04;99480.00;1741450;80;20292;-79
2022/02/25 00:08:32;;;;;;;;;;;;;;;9.25;53.96;99473.73;1736866;80;20193;-78
2022/02/25 00:11:01;;;;;;;;;;;;;;;9.28;53.94;99475.22;1734632;81;20106;-79
2022/02/25 00:13:30;;;;;;;;;;;;;;;9.16;54.03;99473.40;1736353;81;20129;-81
2022/02/25 00:15:57;;;;;;;;;;;;;;;9.26;54.11;99474.07;1740729;81;20601;-79
2022/02/25 00:18:25;;;;;;;;;;;;;;;9.47;53.67;99469.60;1741033;81;20197;-79
2022/02/25 00:20:51;;;;;;;;;;;;;;;9.55;53.28;99479.31;1739822;81;20190;-82
2022/02/25 00:23:16;;;;;;;;;;;;;;;9.51;53.33;99467.48;1758142;80;21956;-81
2022/02/25 00:25:46;;;;;;;;;;;;;;;9.32;53.54;99478.69;1731331;81;20179;-82
2022/02/25 00:28:11;;;;;;;;;;;;;;;9.49;53.58;99474.70;1721898;81;20124;-82
2022/02/25 00:30:37;;;;;;;;;;;;;;;9.18;53.89;99479.82;1750759;80;20186;-79
2022/02/25 00:33:03;;;;;;;;;;;;;;;9.32;53.67;99477.37;1755613;79;20147;-78
2022/02/25 00:35:28;;;;;;;;;;;;;;;9.47;53.44;99479.33;1756064;79;21181;-80
2022/02/25 00:37:54;;;;;;;;;;;;;;;9.38;53.58;99473.73;1753013;79;20655;-82
2022/02/25 00:40:21;;;;;;;;;;;;;;;9.41;53.66;99487.90;1759651;79;20141;-78
2022/02/25 00:42:47;;;;;;;;;;;;;;;9.39;53.44;99481.98;1756398;80;20989;-80
2022/02/25 00:45:12;;;;;;;;;;;;;;;9.49;53.40;99482.61;1761453;79;20131;-82
2022/02/25 00:47:38;;;;;;;;;;;;;;;9.45;53.39;99473.41;1757865;79;21110;-82
2022/02/25 00:50:08;;;;;;;;;;;;;;;9.39;53.51;99487.25;1754494;79;20141;-80
2022/02/25 00:52:34;;;;;;;;;;;;;;;9.55;53.10;99479.31;1753768;80;20107;-80
2022/02/25 00:54:59;;;;;;;;;;;;;;;9.65;53.06;99473.39;1754849;80;20143;-81
2022/02/25 00:57:25;;;;;;;;;;;;;;;9.56;53.06;99468.30;1759784;79;20478;-79
2022/02/25 00:59:50;;;;;;;;;;;;;;;9.58;52.73;99472.40;1757618;80;21143;-79
2022/02/25 01:02:16;;;;;;;;;;;;;;;9.64;52.82;99466.45;1755388;80;20488;-81
2022/02/25 01:04:41;;;;;;;;;;;;;;;9.81;52.64;99469.89;1753999;80;20140;-83
2022/02/25 01:07:07;;;;;;;;;;;;;;;9.75;52.52;99457.88;1758886;80;20136;-77
2022/02/25 01:09:33;;;;;;;;;;;;;;;9.80;52.61;99452.92;1755819;80;20462;-79
2022/02/25 01:11:58;;;;;;;;;;;;;;;9.81;52.52;99449.30;1752955;80;21845;-79
2022/02/25 01:14:24;;;;;;;;;;;;;;;9.59;52.82;99446.38;1758879;80;20204;-79
2022/02/25 01:16:49;;;;;;;;;;;;;;;9.52;53.02;99443.59;1754650;80;20122;-79
2022/02/25 01:19:15;;;;;;;;;;;;;;;9.63;53.04;99444.22;1754473;80;20509;-80
2022/02/25 01:21:41;;;;;;;;;;;;;;;9.75;52.99;99436.79;1754991;80;20292;-79
2022/02/25 01:24:06;;;;;;;;;;;;;;;9.76;52.84;99439.77;1757009;79;21038;-80
2022/02/25 01:26:32;;;;;;;;;;;;;;;9.74;52.73;99428.07;1752268;80;20785;-82
2022/02/25 01:28:58;;;;;;;;;;;;;;;9.86;52.74;99436.42;1754629;80;20914;-79
2022/02/25 01:31:24;;;;;;;;;;;;;;;9.97;52.54;99433.41;1763028;79;20250;-80
2022/02/25 01:33:49;;;;;;;;;;;;;;;9.89;52.51;99427.67;1759364;80;20615;-79
2022/02/25 01:36:15;;;;;;;;;;;;;;;10.00;52.28;99427.80;1761522;79;21193;-80
2022/02/25 01:38:41;;;;;;;;;;;;;;;10.06;52.11;99432.39;1757888;80;20129;-79
2022/02/25 01:41:07;;;;;;;;;;;;;;;9.92;52.23;99422.56;1761483;80;20137;-82
2022/02/25 01:43:32;;;;;;;;;;;;;;;10.15;52.17;99435.02;1734807;80;21715;-80
2022/02/25 01:45:58;;;;;;;;;;;;;;;10.18;51.89;99422.30;1760307;80;20114;-79
2022/02/25 01:48:26;;;;;;;;;;;;;;;10.02;51.99;99436.39;1757440;80;21152;-80
2022/02/25 01:50:51;;;;;;;;;;;;;;;10.05;52.20;99424.66;1748195;80;20192;-81
2022/02/25 01:53:19;;;;;;;;;;;;;;;10.08;52.05;99419.55;1755107;80;20179;-80
2022/02/25 01:55:44;;;;;;;;;;;;;;;10.14;51.97;99423.63;1726236;80;20123;-79
2022/02/25 01:58:10;;;;;;;;;;;;;;;10.13;52.01;99422.48;1761018;80;20124;-80
2022/02/25 02:00:36;;;;;;;;;;;;;;;9.94;52.23;99420.56;1750757;80;21174;-82
2022/02/25 02:03:03;;;;;;;;;;;;;;;9.96;52.46;99409.84;1762391;80;20191;-79
2022/02/25 02:05:29;;;;;;;;;;;;;;;10.13;52.05;99413.25;1756614;80;20136;-79
2022/02/25 02:07:54;;;;;;;;;;;;;;;10.19;51.92;99404.64;1762440;80;20170;-79
2022/02/25 02:10:20;;;;;;;;;;;;;;;10.03;52.10;99411.63;1760435;80;20197;-80
2022/02/25 02:12:45;;;;;;;;;;;;;;;10.06;52.25;99399.42;1757911;80;22104;-77
2022/02/25 02:15:11;;;;;;;;;;;;;;;10.11;52.07;99401.55;1758505;80;20189;-80
2022/02/25 02:17:37;;;;;;;;;;;;;;;9.85;52.55;99413.67;1751130;80;20786;-80
2022/02/25 02:20:03;;;;;;;;;;;;;;;9.97;52.39;99409.67;1761886;80;20163;-79
2022/02/25 02:22:29;;;;;;;;;;;;;;;10.03;52.18;99411.63;1758118;80;20146;-77
2022/02/25 02:24:55;;;;;;;;;;;;;;;10.06;52.26;99411.29;1758022;80;21162;-77
2022/02/25 02:27:21;;;;;;;;;;;;;;;9.96;52.52;99409.38;1757026;80;20301;-78
2022/02/25 02:29:46;;;;;;;;;;;;;;;10.03;52.36;99412.14;1758292;80;20167;-80
2022/02/25 02:32:12;;;;;;;;;;;;;;;10.11;52.22;99415.25;1754191;80;20173;-78
2022/02/25 02:34:38;;;;;;;;;;;;;;;10.13;52.29;99411.92;1759228;80;20232;-79
2022/02/25 02:37:07;;;;;;;;;;;;;;;10.06;52.43;99412.61;1755522;80;21123;-79
2022/02/25 02:39:32;;;;;;;;;;;;;;;9.99;52.52;99412.98;1750917;80;20149;-80
2022/02/25 02:41:58;;;;;;;;;;;;;;;9.96;52.67;99422.56;1760250;80;20175;-79
2022/02/25 02:44:23;;;;;;;;;;;;;;;10.04;52.61;99415.92;1760745;80;20456;-78
2022/02/25 02:46:49;;;;;;;;;;;;;;;9.89;52.82;99423.71;1755868;80;20147;-77
2022/02/25 02:49:14;;;;;;;;;;;;;;;10.01;52.56;99420.22;1756789;80;22047;-82
2022/02/25 02:51:40;;;;;;;;;;;;;;;9.76;52.88;99407.63;1754697;80;20183;-78
2022/02/25 02:54:06;;;;;;;;;;;;;;;9.80;53.15;99426.55;1759395;80;20233;-78
2022/02/25 02:56:31;;;;;;;;;;;;;;;9.79;53.10;99419.63;1754484;80;20547;-78
2022/02/25 02:58:57;;;;;;;;;;;;;;;9.81;53.23;99412.39;1754954;80;20231;-79
2022/02/25 03:01:24;;;;;;;;;;;;;;;9.88;52.96;99409.38;1760392;80;21078;-77
2022/02/25 03:03:49;;;;;;;;;;;;;;;9.86;53.15;99410.87;1756967;80;20227;-78
2022/02/25 03:06:15;;;;;;;;;;;;;;;10.02;52.77;99410.01;1760579;80;20157;-79
2022/02/25 03:08:40;;;;;;;;;;;;;;;9.94;52.92;99412.66;1758005;80;20112;-78
2022/02/25 03:11:06;;;;;;;;;;;;;;;9.84;52.99;99404.14;1754481;80;20181;-78
2022/02/25 03:13:31;;;;;;;;;;;;;;;9.83;53.17;99408.57;1759661;80;21013;-78
2022/02/25 03:15:57;;;;;;;;;;;;;;;10.02;52.90;99411.80;1753426;80;20161;-78
2022/02/25 03:18:23;;;;;;;;;;;;;;;9.77;53.15;99407.11;1759204;80;20177;-80
2022/02/25 03:20:48;;;;;;;;;;;;;;;9.97;52.88;99411.00;1747525;80;20746;-78
2022/02/25 03:23:16;;;;;;;;;;;;;;;9.85;53.05;99405.77;1761072;80;20115;-79
2022/02/25 03:25:41;;;;;;;;;;;;;;;9.81;53.11;99408.44;1757741;80;21225;-77
2022/02/25 03:28:07;;;;;;;;;;;;;;;9.90;52.98;99419.28;1753393;80;20238;-78
2022/02/25 03:30:33;;;;;;;;;;;;;;;9.83;53.21;99420.94;1728528;80;20121;-78
2022/02/25 03:32:58;;;;;;;;;;;;;;;9.63;53.54;99425.77;1754569;80;20212;-78
2022/02/25 03:35:24;;;;;;;;;;;;;;;9.68;53.37;99423.47;1761522;80;20143;-78
2022/02/25 03:37:49;;;;;;;;;;;;;;;9.64;53.48;99426.92;1763909;80;21136;-79
2022/02/25 03:40:15;;;;;;;;;;;;;;;9.66;53.37;99434.18;1765900;80;20140;-80
2022/02/25 03:42:41;;;;;;;;;;;;;;;9.61;53.66;99451.48;1758338;80;20127;-78
2022/02/25 03:45:07;;;;;;;;;;;;;;;9.53;53.80;99434.67;1762409;80;20168;-79
2022/02/25 03:47:33;;;;;;;;;;;;;;;9.56;53.79;99436.16;1757396;80;20187;-78
2022/02/25 03:49:59;;;;;;;;;;;;;;;9.52;53.75;99433.05;1761712;80;21751;-77
2022/02/25 03:52:25;;;;;;;;;;;;;;;9.50;54.03;99432.88;1758959;80;20212;-78
2022/02/25 03:54:50;;;;;;;;;;;;;;;9.61;53.77;99432.52;1765008;80;20653;-81
2022/02/25 03:57:17;;;;;;;;;;;;;;;9.51;53.96;99430.58;1755173;80;20159;-78
2022/02/25 03:59:43;;;;;;;;;;;;;;;9.58;53.90;99434.17;1760028;80;20222;-78
2022/02/25 04:02:08;;;;;;;;;;;;;;;9.59;53.92;99437.66;1761835;80;21157;-78
2022/02/25 04:04:34;;;;;;;;;;;;;;;9.65;53.84;99431.20;1755400;80;20460;-78
2022/02/25 04:07:00;;;;;;;;;;;;;;;9.68;53.76;99430.88;1759132;80;20124;-77
2022/02/25 04:09:25;;;;;;;;;;;;;;;9.55;54.04;99434.51;1755190;80;21372;-78
2022/02/25 04:11:52;;;;;;;;;;;;;;;9.60;53.98;99445.39;1757583;80;20251;-78
2022/02/25 04:14:21;;;;;;;;;;;;;;;9.55;54.16;99449.00;1756155;80;21070;-78
2022/02/25 04:16:50;;;;;;;;;;;;;;;9.52;54.21;99444.06;1758760;80;20166;-80
2022/02/25 04:19:16;;;;;;;;;;;;;;;9.51;54.39;99443.77;1763160;80;21095;-78
2022/02/25 04:21:42;;;;;;;;;;;;;;;9.05;55.37;99452.66;1758993;80;20196;-78
2022/02/25 04:24:09;;;;;;;;;;;;;;;9.29;55.01;99459.73;1758360;80;20184;-78
2022/02/25 04:26:34;;;;;;;;;;;;;;;9.29;55.12;99459.25;1761046;80;21068;-78
2022/02/25 04:29:00;;;;;;;;;;;;;;;9.22;55.48;99452.17;1759475;80;20181;-78
2022/02/25 04:31:26;;;;;;;;;;;;;;;9.38;55.13;99459.24;1752261;80;20463;-78
2022/02/25 04:33:52;;;;;;;;;;;;;;;9.30;55.36;99450.84;1756360;80;20228;-78
2022/02/25 04:36:20;;;;;;;;;;;;;;;9.32;55.48;99456.28;1751039;80;20226;-78
2022/02/25 04:38:46;;;;;;;;;;;;;;;9.33;55.52;99459.73;1752477;80;20532;-78
2022/02/25 04:41:11;;;;;;;;;;;;;;;9.50;55.18;99452.64;1748858;80;20276;-79
2022/02/25 04:43:37;;;;;;;;;;;;;;;9.47;55.42;99451.66;1752961;80;20196;-82
2022/02/25 04:46:02;;;;;;;;;;;;;;;9.49;55.51;99464.16;1741416;80;20432;-78
2022/02/25 04:48:28;;;;;;;;;;;;;;;9.55;55.36;99475.36;1764728;80;21313;-78
2022/02/25 04:50:54;;;;;;;;;;;;;;;9.16;56.24;99489.20;1756222;80;21150;-78
2022/02/25 04:53:19;;;;;;;;;;;;;;;9.14;56.63;99481.97;1740192;81;20197;-79
2022/02/25 04:55:46;;;;;;;;;;;;;;;9.07;56.85;99495.45;1735956;81;20209;-78
2022/02/25 04:58:13;;;;;;;;;;;;;;;9.07;57.10;99512.56;1754798;80;20954;-78
2022/02/25 05:00:39;;;;;;;;;;;;;;;8.85;57.89;99506.11;1729584;81;20184;-78
2022/02/25 05:03:06;;;;;;;;;;;;;;;8.85;57.96;99531.94;1729727;80;21080;-78
2022/02/25 05:05:32;;;;;;;;;;;;;;;8.66;58.75;99546.70;1737030;80;20087;-78
2022/02/25 05:07:59;;;;;;;;;;;;;;;8.59;59.20;99567.06;1736441;80;20186;-78
2022/02/25 05:10:26;;;;;;;;;;;;;;;8.37;60.30;99575.46;1736854;80;20818;-78
2022/02/25 05:12:52;;;;;;;;;;;;;;;8.38;61.04;99575.80;1735705;81;20182;-78
2022/02/25 05:20:45;;;;;;;;;;;;;;;8.56;64.70;99601.59;1737663;81;20126;-78
2022/02/25 05:23:11;;;;;;;;;;;;;;;8.56;65.86;99605.54;1733682;80;20156;-77
2022/02/25 05:25:37;;;;;;;;;;;;;;;8.70;66.16;99621.71;1739458;81;20720;-78
2022/02/25 05:28:03;;;;;;;;;;;;;;;8.70;66.87;99624.34;1744450;80;20613;-78
2022/02/25 05:30:28;;;;;;;;;;;;;;;8.57;67.46;99640.56;1744658;80;20360;-78
2022/02/25 05:32:54;;;;;;;;;;;;;;;8.59;67.42;99661.81;1749391;81;20154;-79
2022/02/25 05:35:20;;;;;;;;;;;;;;;8.37;67.33;99662.28;1732975;81;20208;-80
2022/02/25 05:37:46;;;;;;;;;;;;;;;8.31;67.68;99651.05;1768163;78;20756;-81
2022/02/25 05:40:13;;;;;;;;;;;;;;;8.32;67.99;99648.27;1742483;80;21772;-79
2022/02/25 05:42:40;;;;;;;;;;;;;;;8.33;68.00;99655.19;1739656;80;20193;-78
2022/02/25 05:45:06;;;;;;;;;;;;;;;8.20;68.54;99680.59;1733158;81;20138;-81
2022/02/25 05:47:34;;;;;;;;;;;;;;;8.08;69.42;99704.16;1765878;80;20122;-77
2022/02/25 05:50:02;;;;;;;;;;;;;;;8.23;69.34;99699.17;1762247;80;20170;-79
2022/02/25 05:52:29;;;;;;;;;;;;;;;8.07;70.21;99682.77;1758415;80;20953;-77
2022/02/25 05:54:57;;;;;;;;;;;;;;;8.03;70.67;99723.02;1753965;80;20178;-76
2022/02/25 05:57:24;;;;;;;;;;;;;;;7.84;70.69;99714.76;1765066;80;20248;-79
2022/02/25 05:59:50;;;;;;;;;;;;;;;7.89;70.67;99712.53;1751324;80;20198;-78
2022/02/25 06:02:16;;;;;;;;;;;;;;;7.67;71.71;99711.63;1758215;80;20125;-77
2022/02/25 06:04:42;;;;;;;;;;;;;;;7.64;71.92;99746.91;1759249;80;21163;-79
2022/02/25 06:07:07;;;;;;;;;;;;;;;7.58;72.55;99741.42;1755347;80;20195;-78
2022/02/25 06:09:33;;;;;;;;;;;;;;;7.77;72.56;99726.86;1766898;80;20161;-77
2022/02/25 06:11:58;;;;;;;;;;;;;;;7.75;72.92;99753.77;1760567;80;20868;-77
2022/02/25 06:14:24;;;;;;;;;;;;;;;7.47;74.27;99744.61;1756284;80;20135;-78
2022/02/25 06:16:50;;;;;;;;;;;;;;;7.42;75.08;99744.69;1760770;80;21031;-81
2022/02/25 06:19:15;;;;;;;;;;;;;;;7.53;75.27;99749.75;1760459;80;20187;-79
2022/02/25 06:21:41;;;;;;;;;;;;;;;7.69;74.46;99764.40;1755650;80;20363;-79
2022/02/25 06:24:06;;;;;;;;;;;;;;;7.50;75.62;99783.73;1757267;80;20518;-78
2022/02/25 06:26:32;;;;;;;;;;;;;;;7.55;75.55;99770.97;1761332;80;20138;-77
2022/02/25 06:28:58;;;;;;;;;;;;;;;7.38;76.17;99786.20;1755983;80;22547;-80
2022/02/25 06:31:24;;;;;;;;;;;;;;;7.54;75.75;99796.08;1721097;81;20634;-78
2022/02/25 06:33:50;;;;;;;;;;;;;;;7.28;75.61;99791.95;1746129;80;20798;-77
2022/02/25 06:36:15;;;;;;;;;;;;;;;7.11;75.17;99778.59;1740841;81;20159;-76
2022/02/25 06:38:41;;;;;;;;;;;;;;;7.51;73.59;99786.67;1761597;80;21350;-76
2022/02/25 06:41:07;;;;;;;;;;;;;;;7.15;73.19;99794.42;1762252;80;21096;-76
2022/02/25 06:43:32;;;;;;;;;;;;;;;7.29;72.30;99787.87;1763411;80;20455;-78
2022/02/25 06:45:58;;;;;;;;;;;;;;;7.11;71.74;99814.04;1757817;80;20194;-76
2022/02/25 06:48:23;;;;;;;;;;;;;;;7.32;70.83;99784.14;1758019;80;20448;-77
2022/02/25 06:50:49;;;;;;;;;;;;;;;7.39;70.88;99791.77;1761442;80;20166;-76
2022/02/25 06:53:15;;;;;;;;;;;;;;;7.31;71.45;99807.44;1756466;80;20710;-78
2022/02/25 06:55:41;;;;;;;;;;;;;;;7.38;71.46;99798.02;1766538;80;20144;-78
2022/02/25 06:58:07;;;;;;;;;;;;;;;7.49;71.33;99834.61;1764289;80;20189;-81
2022/02/25 07:00:35;;;;;;;;;;;;;;;7.35;72.39;99812.75;1761985;80;20284;-79
2022/02/25 07:03:02;;;;;;;;;;;;;;;7.34;73.13;99832.91;1761101;80;20202;-81
2022/02/25 07:05:27;;;;;;;;;;;;;;;7.50;73.00;99829.70;1762974;80;21194;-79
2022/02/25 07:07:54;;;;;;;;;;;;;;;7.35;73.57;99839.02;1755356;80;20149;-79
2022/02/25 07:10:20;;;;;;;;;;;;;;;7.19;74.01;99861.45;1753791;80;20151;-81
2022/02/25 07:12:46;;;;;;;;;;;;;;;7.33;73.69;99843.56;1761835;80;20591;-77
2022/02/25 07:15:12;;;;;;;;;;;;;;;7.18;74.11;99845.34;1762435;80;20259;-79
2022/02/25 07:17:37;;;;;;;;;;;;;;;7.21;73.34;99861.31;1755761;80;22566;-79
2022/02/25 07:20:04;;;;;;;;;;;;;;;7.32;73.62;99873.45;1751020;80;20141;-79
2022/02/25 07:22:29;;;;;;;;;;;;;;;7.42;73.06;99865.04;1728142;80;21071;-77
2022/02/25 07:24:55;;;;;;;;;;;;;;;7.42;72.83;99861.59;1759515;80;20703;-79
2022/02/25 07:27:21;;;;;;;;;;;;;;;7.51;72.15;99877.32;1755167;80;20198;-79
2022/02/25 07:29:47;;;;;;;;;;;;;;;7.26;72.80;99877.95;1744167;80;22121;-80
2022/02/25 07:32:12;;;;;;;;;;;;;;;7.28;72.77;99877.32;1760912;79;20161;-80
2022/02/25 07:34:39;;;;;;;;;;;;;;;7.32;72.32;99925.98;1762471;80;20403;-80
2022/02/25 07:37:05;;;;;;;;;;;;;;;7.10;72.79;99893.80;1759848;80;20175;-77
2022/02/25 07:39:31;;;;;;;;;;;;;;;7.22;72.07;99904.14;1757217;80;20221;-79
2022/02/25 07:41:57;;;;;;;;;;;;;;;7.28;72.19;99915.41;1749669;79;21255;-79
2022/02/25 07:44:26;;;;;;;;;;;;;;;7.16;72.57;99939.20;1749979;80;20179;-79
2022/02/25 07:46:52;;;;;;;;;;;;;;;7.18;72.79;99895.23;1759502;79;20161;-78
2022/02/25 07:49:17;;;;;;;;;;;;;;;6.98;73.47;99925.11;1759033;80;20985;-78
2022/02/25 07:51:45;;;;;;;;;;;;;;;6.96;73.54;99925.71;1752496;80;20153;-77
2022/02/25 07:54:10;;;;;;;;;;;;;;;7.13;73.27;99932.91;1756321;80;21646;-77
2022/02/25 07:56:36;;;;;;;;;;;;;;;6.93;74.11;99946.52;1759429;80;20247;-78
2022/02/25 07:59:02;;;;;;;;;;;;;;;7.00;73.84;99945.48;1760648;80;20184;-77
2022/02/25 08:01:27;;;;;;;;;;;;;;;7.08;73.51;99966.61;1752261;80;20425;-77
2022/02/25 08:03:53;;;;;;;;;;;;;;;7.05;73.50;99949.83;1760392;80;20112;-77
2022/02/25 08:06:18;;;;;;;;;;;;;;;7.07;73.51;99989.92;1757234;80;21092;-78
2022/02/25 08:08:44;;;;;;;;;;;;;;;7.02;73.93;99965.85;1761547;80;20315;-80
2022/02/25 08:11:10;;;;;;;;;;;;;;;7.13;73.46;99974.92;1755905;80;20330;-77
2022/02/25 08:13:36;;;;;;;;;;;;;;;7.19;73.63;99974.38;1756175;80;20098;-78
2022/02/25 08:16:02;;;;;;;;;;;;;;;7.18;73.31;100004.22;1757798;80;20365;-79
2022/02/25 08:18:27;;;;;;;;;;;;;;;7.30;73.13;99977.80;1760712;80;21249;-79
2022/02/25 08:20:53;;;;;;;;;;;;;;;7.41;71.55;100017.09;1765679;80;20151;-80
2022/02/25 08:23:18;;;;;;;;;;;;;;;7.33;71.15;100005.96;1756313;80;21238;-82
2022/02/25 08:25:44;;;;;;;;;;;;;;;7.27;71.82;99984.66;1751878;80;20137;-81
2022/02/25 08:28:10;;;;;;;;;;;;;;;7.23;71.16;100001.18;1757246;80;20657;-78
2022/02/25 08:30:36;;;;;;;;;;;;;;;7.26;71.16;99981.70;1759077;80;21915;-79
2022/02/25 08:33:02;;;;;;;;;;;;;;;7.28;70.71;99988.95;1755744;80;20209;-78
2022/02/25 08:35:30;;;;;;;;;;;;;;;7.26;70.14;99989.58;1749506;80;20525;-79
2022/02/25 08:37:56;;;;;;;;;;;;;;;7.57;69.30;99978.87;1747711;80;20556;-78
2022/02/25 08:40:21;;;;;;;;;;;;;;;7.44;68.89;99997.11;1754703;80;20126;-79
2022/02/25 08:42:47;;;;;;;;;;;;;;;7.66;66.40;100009.57;1751109;80;21012;-79
2022/02/25 08:45:13;;;;;;;;;;;;;;;7.68;62.82;100007.66;1751604;80;20530;-79
2022/02/25 08:47:40;;;;;;;;;;;;;;;7.65;62.89;100007.94;1765837;80;20434;-79
2022/02/25 08:50:06;;;;;;;;;;;;;;;7.70;62.83;100009.64;1752374;80;20203;-79
2022/02/25 08:52:31;;;;;;;;;;;;;;;7.60;63.82;100007.50;1753423;80;20213;-80
2022/02/25 08:54:57;;;;;;;;;;;;;;;7.62;64.22;100018.73;1750386;80;21014;-79
2022/02/25 08:57:23;;;;;;;;;;;;;;;7.75;64.57;100013.16;1747186;80;20396;-79
2022/02/25 08:59:48;;;;;;;;;;;;;;;7.52;63.48;100027.45;1751708;80;20178;-80
2022/02/25 09:02:14;;;;;;;;;;;;;;;7.50;62.59;100029.39;1748800;80;20126;-80
2022/02/25 09:04:40;;;;;;;;;;;;;;;7.60;61.78;100031.16;1753459;80;20185;-79
2022/02/25 09:07:06;;;;;;;;;;;;;;;7.51;61.81;100050.73;1746501;80;21171;-78
2022/02/25 09:09:31;;;;;;;;;;;;;;;7.07;61.18;100087.07;1752214;80;20137;-79
2022/02/25 09:11:57;;;;;;;;;;;;;;;7.17;61.07;100062.95;1746413;80;20153;-80
2022/02/25 09:14:24;;;;;;;;;;;;;;;7.24;60.76;100065.88;1742947;80;20710;-79
2022/02/25 09:16:49;;;;;;;;;;;;;;;7.09;60.14;100062.81;1750663;80;20590;-80
2022/02/25 09:19:15;;;;;;;;;;;;;;;7.04;59.12;100072.90;1757077;80;21156;-78
2022/02/25 09:21:40;;;;;;;;;;;;;;;7.04;59.04;100084.72;1744152;80;20157;-80
2022/02/25 09:24:06;;;;;;;;;;;;;;;7.25;59.03;100100.84;1741158;80;20200;-79
2022/02/25 09:26:33;;;;;;;;;;;;;;;7.13;59.55;100104.91;1750516;80;20198;-79
2022/02/25 09:28:58;;;;;;;;;;;;;;;7.28;59.63;100115.84;1756029;80;20152;-80
2022/02/25 09:31:24;;;;;;;;;;;;;;;7.15;60.05;100112.16;1749074;80;21081;-79
2022/02/25 09:33:50;;;;;;;;;;;;;;;7.02;59.95;100137.82;1755678;80;20330;-81
2022/02/25 09:36:16;;;;;;;;;;;;;;;6.86;59.92;100121.27;1756736;80;20656;-80
2022/02/25 09:38:42;;;;;;;;;;;;;;;6.80;59.99;100116.05;1728914;81;20199;-80
2022/02/25 09:41:09;;;;;;;;;;;;;;;6.90;59.33;100125.76;1737863;81;20256;-80
2022/02/25 09:43:35;;;;;;;;;;;;;;;6.93;59.03;100109.74;1736589;81;21058;-80
2022/02/25 09:46:05;;;;;;;;;;;;;;;6.71;59.60;100109.00;1736257;81;20198;-78
2022/02/25 09:48:31;;;;;;;;;;;;;;;6.86;59.58;100115.20;1732163;81;20179;-78
2022/02/25 09:50:58;;;;;;;;;;;;;;;7.02;59.72;100101.06;1760239;80;21405;-78
2022/02/25 09:53:24;;;;;;;;;;;;;;;6.87;60.78;100123.40;1757749;80;20199;-78
2022/02/25 09:55:49;;;;;;;;;;;;;;;6.87;60.83;100115.52;1759945;80;20559;-78
2022/02/25 09:58:15;;;;;;;;;;;;;;;7.09;60.74;100110.57;1761761;79;20155;-79
2022/02/25 10:00:41;;;;;;;;;;;;;;;6.97;61.19;100122.96;1763793;80;20155;-78
2022/02/25 10:03:12;;;;;;;;;;;;;;;7.08;60.71;100124.16;1757791;80;20468;-79
2022/02/25 10:05:37;;;;;;;;;;;;;;;7.23;60.16;100139.56;1757395;80;20184;-78
2022/02/25 10:08:09;;;;;;;;;;;;;;;7.24;59.90;100126.30;1755352;80;21179;-78
2022/02/25 10:10:50;;;;;;;;;;;;;;;7.68;59.50;100124.61;1758211;80;20212;-78
2022/02/25 10:13:18;;;;;;;;;;;;;;;7.68;59.32;100113.60;1726835;81;20303;-79
2022/02/25 10:15:44;;;;;;;;;;;;;;;7.75;58.57;100128.33;1761293;80;20129;-77
2022/02/25 10:18:12;;;;;;;;;;;;;;;7.62;58.76;100147.50;1757202;80;20194;-77
2022/02/25 10:20:38;;;;;;;;;;;;;;;7.68;58.71;100137.26;1755097;80;21022;-77
2022/02/25 10:23:10;;;;;;;;;;;;;;;8.06;58.12;100128.17;1755146;80;20167;-77
2022/02/25 10:25:36;;;;;;;;;;;;;;;7.57;58.74;100156.25;1734033;80;20127;-78
2022/02/25 10:28:02;;;;;;;;;;;;;;;7.70;58.24;100163.41;1750190;80;20172;-78
2022/02/25 10:30:28;;;;;;;;;;;;;;;7.50;57.15;100177.85;1726093;81;20226;-79
2022/02/25 10:32:55;;;;;;;;;;;;;;;7.26;57.13;100173.44;1759658;80;21127;-79
2022/02/25 10:35:33;;;;;;;;;;;;;;;7.28;57.66;100178.06;1760611;80;20149;-80
2022/02/25 10:38:03;;;;;;;;;;;;;;;7.16;58.13;100161.11;1761734;79;20155;-79
2022/02/25 10:40:31;;;;;;;;;;;;;;;7.41;57.40;100156.33;1761471;79;20208;-78
2022/02/25 10:42:58;;;;;;;;;;;;;;;7.46;56.47;100177.77;1764622;80;36400;-79
2022/02/25 10:45:38;;;;;;;;;;;;;;;7.34;56.06;100174.90;1764269;80;21889;-78
2022/02/25 10:48:05;;;;;;;;;;;;;;;7.39;56.43;100164.81;1758724;79;20190;-77
2022/02/25 10:50:50;;;;;;;;;;;;;;;7.59;56.28;100157.79;1761751;80;20684;-78
2022/02/25 10:53:18;;;;;;;;;;;;;;;7.72;56.10;100167.56;1757593;79;20621;-78
2022/02/25 10:55:47;;;;;;;;;;;;;;;7.74;55.46;100174.00;1745453;80;20146;-80
2022/02/25 10:58:13;;;;;;;;;;;;;;;7.68;55.61;100181.94;1762975;80;21323;-79
2022/02/25 11:00:38;;;;;;;;;;;;;;;7.76;55.46;100194.41;1752627;80;20711;-80
2022/02/25 11:03:04;;;;;;;;;;;;;;;7.93;55.52;100192.07;1763279;80;20146;-80
2022/02/25 11:05:31;;;;;;;;;;;;;;;7.98;55.24;100198.56;1762326;80;20547;-77
2022/02/25 11:07:58;;;;;;;;;;;;;;;7.54;55.85;100217.33;1757926;80;20619;-79
2022/02/25 11:10:25;;;;;;;;;;;;;;;7.80;55.74;100190.55;1763065;80;21579;-77
2022/02/25 11:12:51;;;;;;;;;;;;;;;7.52;55.72;100233.72;1768151;80;20195;-78
2022/02/25 11:15:22;;;;;;;;;;;;;;;7.77;55.95;100184.70;1771177;79;20158;-77
2022/02/25 11:17:48;;;;;;;;;;;;;;;7.75;55.55;100190.09;1776625;80;20173;-78
2022/02/25 11:20:13;;;;;;;;;;;;;;;7.83;54.75;100192.90;1756535;80;20122;-77
2022/02/25 11:22:41;;;;;;;;;;;;;;;8.01;54.70;100196.14;1759020;80;21102;-77
2022/02/25 11:25:08;;;;;;;;;;;;;;;8.23;54.29;100185.35;1728911;80;21427;-78
2022/02/25 11:27:33;;;;;;;;;;;;;;;8.22;54.43;100185.00;1757779;79;20106;-78
2022/02/25 11:30:12;;;;;;;;;;;;;;;7.90;55.15;100211.08;1754565;79;20215;-77
2022/02/25 11:32:44;;;;;;;;;;;;;;;7.83;54.66;100201.25;1759540;80;20171;-79
2022/02/25 11:35:18;;;;;;;;;;;;;;;7.82;54.29;100204.38;1757117;79;22017;-78
2022/02/25 11:37:47;;;;;;;;;;;;;;;7.81;53.67;100206.64;1757448;80;20183;-77
2022/02/25 11:40:12;;;;;;;;;;;;;;;8.13;53.54;100201.61;1758071;80;20181;-78
2022/02/25 11:42:39;;;;;;;;;;;;;;;7.70;54.30;100201.52;1755567;80;20184;-78
2022/02/25 11:45:22;;;;;;;;;;;;;;;7.73;54.68;100239.36;1757122;80;20156;-77
2022/02/25 11:47:53;;;;;;;;;;;;;;;7.62;54.73;100195.63;1756154;79;21012;-78
2022/02/25 11:50:35;;;;;;;;;;;;;;;7.53;54.61;100205.14;1759544;80;20151;-79
2022/02/25 11:53:19;;;;;;;;;;;;;;;7.53;55.15;100199.88;1757177;79;20534;-78
2022/02/25 11:55:45;;;;;;;;;;;;;;;7.59;55.51;100208.22;1759622;80;20987;-78
2022/02/25 11:58:41;;;;;;;;;;;;;;;7.66;55.82;100201.43;1761116;80;20214;-77
2022/02/25 12:01:14;;;;;;;;;;;;;;;7.91;55.55;100210.13;1762842;80;21078;-74
2022/02/25 12:04:06;;;;;;;;;;;;;;;8.02;55.90;100193.88;1765579;80;20454;-77
2022/02/25 12:07:03;;;;;;;;;;;;;;;8.28;55.60;100186.22;1755422;80;20556;-78
2022/02/25 12:09:52;;;;;;;;;;;;;;;8.20;54.24;100194.84;1762812;80;20176;-78
2022/02/25 12:12:24;;;;;;;;;;;;;;;7.82;54.10;100214.06;1762244;80;20221;-78
2022/02/25 12:15:08;;;;;;;;;;;;;;;7.83;54.04;100244.63;1760409;80;21157;-76
2022/02/25 12:17:58;;;;;;;;;;;;;;;7.91;54.18;100207.49;1755286;80;20217;-76
2022/02/25 12:20:35;;;;;;;;;;;;;;;7.78;54.32;100208.23;1756568;80;20222;-77
2022/02/25 12:23:03;;;;;;;;;;;;;;;8.08;53.96;100206.47;1754236;80;20100;-77
2022/02/25 12:25:44;;;;;;;;;;;;;;;8.10;53.88;100204.52;1756349;80;20145;-77
2022/02/25 12:28:30;;;;;;;;;;;;;;;7.98;53.59;100238.50;1758474;80;21125;-77
2022/02/25 12:31:05;;;;;;;;;;;;;;;8.16;53.32;100210.55;1753271;80;20204;-77
2022/02/25 12:33:39;;;;;;;;;;;;;;;7.97;53.22;100217.10;1756836;80;20141;-80
2022/02/25 12:36:29;;;;;;;;;;;;;;;8.11;53.10;100214.08;1757313;80;20108;-77
2022/02/25 12:39:00;;;;;;;;;;;;;;;8.06;53.49;100241.27;1749247;80;20165;-78
2022/02/25 12:41:27;;;;;;;;;;;;;;;8.23;53.16;100226.13;1755351;80;20717;-78
2022/02/25 12:43:58;;;;;;;;;;;;;;;8.63;52.51;100208.01;1758582;80;20194;-77
2022/02/25 12:46:26;;;;;;;;;;;;;;;8.33;52.39;100198.48;1757104;80;20137;-78
2022/02/25 12:48:52;;;;;;;;;;;;;;;8.53;51.91;100213.80;1756005;80;20152;-78
2022/02/25 12:51:18;;;;;;;;;;;;;;;8.80;51.62;100215.66;1757030;80;20189;-78
2022/02/25 12:54:00;;;;;;;;;;;;;;;8.45;51.26;100213.65;1753324;80;21023;-78
2022/02/25 12:56:32;;;;;;;;;;;;;;;8.53;50.94;100224.33;1757815;80;20173;-78
2022/02/25 12:59:05;;;;;;;;;;;;;;;8.39;51.03;100228.19;1759364;80;20155;-79